sensor_id;sensor_type;location;lat;lon;timestamp;temperature;humidity
66594;DHT22;53450;42.584;23.366;2022-07-06T00:00:14;17.68;85.34
66594;DHT22;53450;42.584;23.366;2022-07-06T00:02:44;17.71;85.71
66594;DHT22;53450;42.584;23.366;2022-07-06T00:05:09;17.68;85.34
66594;DHT22;53450;42.584;23.366;2022-07-06T00:07:35;17.67;85.99
66594;DHT22;53450;42.584;23.366;2022-07-06T00:10:01;17.68;85.35
66594;DHT22;53450;42.584;23.366;2022-07-06T00:12:26;17.67;85.26
66594;DHT22;53450;42.584;23.366;2022-07-06T00:14:52;17.75;85.10
66594;DHT22;53450;42.584;23.366;2022-07-06T00:17:20;17.79;84.86
66594;DHT22;53450;42.584;23.366;2022-07-06T00:19:45;17.71;83.67
66594;DHT22;53450;42.584;23.366;2022-07-06T00:22:11;17.60;83.72
66594;DHT22;53450;42.584;23.366;2022-07-06T00:24:37;17.23;86.23
66594;DHT22;53450;42.584;23.366;2022-07-06T00:27:02;17.13;85.52
66594;DHT22;53450;42.584;23.366;2022-07-06T00:29:28;17.16;85.98
66594;DHT22;53450;42.584;23.366;2022-07-06T00:31:55;17.06;86.36
66594;DHT22;53450;42.584;23.366;2022-07-06T00:34:21;16.96;87.45
66594;DHT22;53450;42.584;23.366;2022-07-06T00:36:47;17.07;87.50
66594;DHT22;53450;42.584;23.366;2022-07-06T00:39:12;17.16;87.65
66594;DHT22;53450;42.584;23.366;2022-07-06T00:41:38;17.28;87.77
66594;DHT22;53450;42.584;23.366;2022-07-06T00:44:08;17.28;87.58
66594;DHT22;53450;42.584;23.366;2022-07-06T00:46:34;17.35;87.22
66594;DHT22;53450;42.584;23.366;2022-07-06T00:49:00;17.38;87.22
66594;DHT22;53450;42.584;23.366;2022-07-06T00:51:30;17.41;87.11
66594;DHT22;53450;42.584;23.366;2022-07-06T00:54:02;17.41;87.23
66594;DHT22;53450;42.584;23.366;2022-07-06T00:56:30;17.26;87.21
66594;DHT22;53450;42.584;23.366;2022-07-06T00:59:24;17.26;87.31
66594;DHT22;53450;42.584;23.366;2022-07-06T01:01:50;17.17;87.95
66594;DHT22;53450;42.584;23.366;2022-07-06T01:04:16;17.28;87.62
66594;DHT22;53450;42.584;23.366;2022-07-06T01:06:45;17.28;87.56
66594;DHT22;53450;42.584;23.366;2022-07-06T01:09:11;17.30;88.07
66594;DHT22;53450;42.584;23.366;2022-07-06T01:11:37;17.32;87.67
66594;DHT22;53450;42.584;23.366;2022-07-06T01:14:03;17.23;87.84
66594;DHT22;53450;42.584;23.366;2022-07-06T01:16:29;17.20;87.70
66594;DHT22;53450;42.584;23.366;2022-07-06T01:18:55;17.32;87.67
66594;DHT22;53450;42.584;23.366;2022-07-06T01:21:21;17.38;86.96
66594;DHT22;53450;42.584;23.366;2022-07-06T01:23:47;17.34;87.03
66594;DHT22;53450;42.584;23.366;2022-07-06T01:26:16;17.45;87.05
66594;DHT22;53450;42.584;23.366;2022-07-06T01:28:43;17.51;86.92
66594;DHT22;53450;42.584;23.366;2022-07-06T01:31:16;17.61;86.65
66594;DHT22;53450;42.584;23.366;2022-07-06T01:33:43;17.61;85.91
66594;DHT22;53450;42.584;23.366;2022-07-06T01:36:10;17.57;85.50
66594;DHT22;53450;42.584;23.366;2022-07-06T01:38:46;17.58;85.35
66594;DHT22;53450;42.584;23.366;2022-07-06T01:41:12;17.42;85.24
66594;DHT22;53450;42.584;23.366;2022-07-06T01:43:38;17.35;85.45
66594;DHT22;53450;42.584;23.366;2022-07-06T01:46:04;17.41;84.83
66594;DHT22;53450;42.584;23.366;2022-07-06T01:48:29;17.55;84.66
66594;DHT22;53450;42.584;23.366;2022-07-06T01:50:59;17.48;83.94
66594;DHT22;53450;42.584;23.366;2022-07-06T01:53:25;17.50;84.50
66594;DHT22;53450;42.584;23.366;2022-07-06T01:55:51;17.47;84.72
66594;DHT22;53450;42.584;23.366;2022-07-06T01:58:17;17.35;84.73
66594;DHT22;53450;42.584;23.366;2022-07-06T02:00:43;17.34;84.81
66594;DHT22;53450;42.584;23.366;2022-07-06T02:03:08;17.32;84.57
66594;DHT22;53450;42.584;23.366;2022-07-06T02:05:37;17.34;85.01
66594;DHT22;53450;42.584;23.366;2022-07-06T02:08:04;17.32;84.51
66594;DHT22;53450;42.584;23.366;2022-07-06T02:10:31;17.28;85.07
66594;DHT22;53450;42.584;23.366;2022-07-06T02:12:57;17.24;84.35
66594;DHT22;53450;42.584;23.366;2022-07-06T02:15:23;17.19;84.12
66594;DHT22;53450;42.584;23.366;2022-07-06T02:17:49;17.13;84.14
66594;DHT22;53450;42.584;23.366;2022-07-06T02:20:14;16.93;84.57
66594;DHT22;53450;42.584;23.366;2022-07-06T02:22:40;16.72;85.34
66594;DHT22;53450;42.584;23.366;2022-07-06T02:25:07;16.51;85.57
66594;DHT22;53450;42.584;23.366;2022-07-06T02:27:33;16.79;85.62
66594;DHT22;53450;42.584;23.366;2022-07-06T02:30:06;16.94;85.60
66594;DHT22;53450;42.584;23.366;2022-07-06T02:32:33;16.93;85.42
66594;DHT22;53450;42.584;23.366;2022-07-06T02:34:59;16.90;85.14
66594;DHT22;53450;42.584;23.366;2022-07-06T02:37:25;16.82;84.78
66594;DHT22;53450;42.584;23.366;2022-07-06T02:39:50;16.71;85.01
66594;DHT22;53450;42.584;23.366;2022-07-06T02:42:16;16.48;84.85
66594;DHT22;53450;42.584;23.366;2022-07-06T02:44:42;16.42;85.09
66594;DHT22;53450;42.584;23.366;2022-07-06T02:47:08;16.45;85.36
66594;DHT22;53450;42.584;23.366;2022-07-06T02:49:34;16.48;86.05
66594;DHT22;53450;42.584;23.366;2022-07-06T02:51:59;16.49;86.21
66594;DHT22;53450;42.584;23.366;2022-07-06T02:54:25;16.48;86.03
66594;DHT22;53450;42.584;23.366;2022-07-06T02:56:51;16.52;85.66
66594;DHT22;53450;42.584;23.366;2022-07-06T02:59:19;16.53;85.21
66594;DHT22;53450;42.584;23.366;2022-07-06T03:01:45;16.61;85.17
66594;DHT22;53450;42.584;23.366;2022-07-06T03:04:11;16.59;85.09
66594;DHT22;53450;42.584;23.366;2022-07-06T03:06:37;16.58;84.60
66594;DHT22;53450;42.584;23.366;2022-07-06T03:09:03;16.55;84.09
66594;DHT22;53450;42.584;23.366;2022-07-06T03:11:29;16.51;84.06
66594;DHT22;53450;42.584;23.366;2022-07-06T03:13:55;16.45;85.21
66594;DHT22;53450;42.584;23.366;2022-07-06T03:16:21;16.53;85.09
66594;DHT22;53450;42.584;23.366;2022-07-06T03:18:47;16.53;85.04
66594;DHT22;53450;42.584;23.366;2022-07-06T03:21:13;16.40;85.28
66594;DHT22;53450;42.584;23.366;2022-07-06T03:23:38;16.58;85.05
66594;DHT22;53450;42.584;23.366;2022-07-06T03:26:04;16.56;84.79
66594;DHT22;53450;42.584;23.366;2022-07-06T03:28:31;16.49;85.66
66594;DHT22;53450;42.584;23.366;2022-07-06T03:30:57;16.55;85.79
66594;DHT22;53450;42.584;23.366;2022-07-06T03:33:23;16.55;84.94
66594;DHT22;53450;42.584;23.366;2022-07-06T03:35:49;16.22;85.15
66594;DHT22;53450;42.584;23.366;2022-07-06T03:38:40;16.04;85.96
66594;DHT22;53450;42.584;23.366;2022-07-06T03:41:06;16.10;86.44
66594;DHT22;53450;42.584;23.366;2022-07-06T03:43:31;16.25;86.57
66594;DHT22;53450;42.584;23.366;2022-07-06T03:45:58;16.24;86.35
66594;DHT22;53450;42.584;23.366;2022-07-06T03:48:24;16.15;86.53
66594;DHT22;53450;42.584;23.366;2022-07-06T03:50:50;16.03;86.27
66594;DHT22;53450;42.584;23.366;2022-07-06T03:53:16;16.08;86.65
66594;DHT22;53450;42.584;23.366;2022-07-06T03:55:42;16.32;86.27
66594;DHT22;53450;42.584;23.366;2022-07-06T03:58:10;16.32;86.54
66594;DHT22;53450;42.584;23.366;2022-07-06T04:00:38;16.29;87.30
66594;DHT22;53450;42.584;23.366;2022-07-06T04:03:09;16.56;86.31
66594;DHT22;53450;42.584;23.366;2022-07-06T04:05:41;16.76;85.87
66594;DHT22;53450;42.584;23.366;2022-07-06T04:08:07;16.94;85.15
66594;DHT22;53450;42.584;23.366;2022-07-06T04:10:38;17.14;84.60
66594;DHT22;53450;42.584;23.366;2022-07-06T04:13:05;17.44;84.94
66594;DHT22;53450;42.584;23.366;2022-07-06T04:15:31;17.38;86.16
66594;DHT22;53450;42.584;23.366;2022-07-06T04:17:56;17.64;86.01
66594;DHT22;53450;42.584;23.366;2022-07-06T04:20:26;18.79;82.82
66594;DHT22;53450;42.584;23.366;2022-07-06T04:22:52;19.81;77.61
66594;DHT22;53450;42.584;23.366;2022-07-06T04:25:20;20.77;74.56
66594;DHT22;53450;42.584;23.366;2022-07-06T04:27:46;21.02;72.10
66594;DHT22;53450;42.584;23.366;2022-07-06T04:30:13;20.83;71.72
66594;DHT22;53450;42.584;23.366;2022-07-06T04:32:40;19.83;75.89
66594;DHT22;53450;42.584;23.366;2022-07-06T04:35:06;19.09;78.13
66594;DHT22;53450;42.584;23.366;2022-07-06T04:37:32;18.78;79.36
66594;DHT22;53450;42.584;23.366;2022-07-06T04:39:58;18.56;80.00
66594;DHT22;53450;42.584;23.366;2022-07-06T04:42:24;18.78;80.59
66594;DHT22;53450;42.584;23.366;2022-07-06T04:44:50;18.74;81.67
66594;DHT22;53450;42.584;23.366;2022-07-06T04:47:17;18.79;80.42
66594;DHT22;53450;42.584;23.366;2022-07-06T04:49:44;18.89;80.79
66594;DHT22;53450;42.584;23.366;2022-07-06T04:52:09;18.95;80.79
66594;DHT22;53450;42.584;23.366;2022-07-06T04:54:35;18.95;78.90
66594;DHT22;53450;42.584;23.366;2022-07-06T04:57:01;19.02;79.80
66594;DHT22;53450;42.584;23.366;2022-07-06T04:59:27;18.88;79.26
66594;DHT22;53450;42.584;23.366;2022-07-06T05:01:53;18.32;80.81
66594;DHT22;53450;42.584;23.366;2022-07-06T05:04:19;18.20;81.11
66594;DHT22;53450;42.584;23.366;2022-07-06T05:06:46;18.00;82.18
66594;DHT22;53450;42.584;23.366;2022-07-06T05:09:12;17.98;82.29
66594;DHT22;53450;42.584;23.366;2022-07-06T05:11:39;17.88;82.56
66594;DHT22;53450;42.584;23.366;2022-07-06T05:14:06;17.91;82.58
66594;DHT22;53450;42.584;23.366;2022-07-06T05:16:32;17.93;82.64
66594;DHT22;53450;42.584;23.366;2022-07-06T05:18:58;17.99;82.39
66594;DHT22;53450;42.584;23.366;2022-07-06T05:21:25;18.22;82.33
66594;DHT22;53450;42.584;23.366;2022-07-06T05:23:51;18.19;81.06
66594;DHT22;53450;42.584;23.366;2022-07-06T05:26:17;18.25;80.40
66594;DHT22;53450;42.584;23.366;2022-07-06T05:28:44;18.30;80.39
66594;DHT22;53450;42.584;23.366;2022-07-06T05:31:13;18.29;80.17
66594;DHT22;53450;42.584;23.366;2022-07-06T05:33:39;18.22;79.25
66594;DHT22;53450;42.584;23.366;2022-07-06T05:36:05;18.19;79.30
66594;DHT22;53450;42.584;23.366;2022-07-06T05:38:31;18.16;79.07
66594;DHT22;53450;42.584;23.366;2022-07-06T05:40:57;18.19;79.79
66594;DHT22;53450;42.584;23.366;2022-07-06T05:43:23;18.26;78.64
66594;DHT22;53450;42.584;23.366;2022-07-06T05:45:50;18.26;78.61
66594;DHT22;53450;42.584;23.366;2022-07-06T05:48:18;18.46;78.49
66594;DHT22;53450;42.584;23.366;2022-07-06T05:53:03;18.65;77.38
66594;DHT22;53450;42.584;23.366;2022-07-06T05:55:30;18.84;76.67
66594;DHT22;53450;42.584;23.366;2022-07-06T05:58:21;19.07;76.05
66594;DHT22;53450;42.584;23.366;2022-07-06T06:00:47;19.11;76.10
66594;DHT22;53450;42.584;23.366;2022-07-06T06:03:17;19.08;76.73
66594;DHT22;53450;42.584;23.366;2022-07-06T06:08:21;18.94;75.94
66594;DHT22;53450;42.584;23.366;2022-07-06T06:10:49;18.92;75.84
66594;DHT22;53450;42.584;23.366;2022-07-06T06:13:18;18.87;75.63
66594;DHT22;53450;42.584;23.366;2022-07-06T06:15:44;18.99;75.45
66594;DHT22;53450;42.584;23.366;2022-07-06T06:18:09;19.11;74.63
66594;DHT22;53450;42.584;23.366;2022-07-06T06:20:35;19.02;74.31
66594;DHT22;53450;42.584;23.366;2022-07-06T06:23:01;18.92;74.59
66594;DHT22;53450;42.584;23.366;2022-07-06T06:25:37;18.94;74.93
66594;DHT22;53450;42.584;23.366;2022-07-06T06:28:08;18.94;74.14
66594;DHT22;53450;42.584;23.366;2022-07-06T06:30:35;19.16;74.55
66594;DHT22;53450;42.584;23.366;2022-07-06T06:33:13;18.98;73.90
66594;DHT22;53450;42.584;23.366;2022-07-06T06:35:50;18.99;75.01
66594;DHT22;53450;42.584;23.366;2022-07-06T06:38:17;19.40;74.20
66594;DHT22;53450;42.584;23.366;2022-07-06T06:40:43;19.49;73.58
66594;DHT22;53450;42.584;23.366;2022-07-06T06:43:09;19.47;71.75
66594;DHT22;53450;42.584;23.366;2022-07-06T06:45:42;19.70;72.38
66594;DHT22;53450;42.584;23.366;2022-07-06T06:48:07;19.91;72.39
66594;DHT22;53450;42.584;23.366;2022-07-06T06:50:33;20.10;72.29
66594;DHT22;53450;42.584;23.366;2022-07-06T06:52:59;19.94;73.19
66594;DHT22;53450;42.584;23.366;2022-07-06T06:55:24;19.91;74.27
66594;DHT22;53450;42.584;23.366;2022-07-06T06:57:50;20.03;73.25
66594;DHT22;53450;42.584;23.366;2022-07-06T07:00:16;20.25;73.37
66594;DHT22;53450;42.584;23.366;2022-07-06T07:02:41;20.01;73.22
66594;DHT22;53450;42.584;23.366;2022-07-06T07:05:07;19.88;73.32
66594;DHT22;53450;42.584;23.366;2022-07-06T07:07:33;20.00;74.54
66594;DHT22;53450;42.584;23.366;2022-07-06T07:09:59;20.00;73.78
66594;DHT22;53450;42.584;23.366;2022-07-06T07:12:24;20.25;73.78
66594;DHT22;53450;42.584;23.366;2022-07-06T07:14:50;20.35;73.83
66594;DHT22;53450;42.584;23.366;2022-07-06T07:17:41;20.20;72.54
66594;DHT22;53450;42.584;23.366;2022-07-06T07:20:07;19.93;73.55
66594;DHT22;53450;42.584;23.366;2022-07-06T07:22:33;20.07;73.55
66594;DHT22;53450;42.584;23.366;2022-07-06T07:24:58;20.44;71.73
66594;DHT22;53450;42.584;23.366;2022-07-06T07:27:25;20.44;72.11
66594;DHT22;53450;42.584;23.366;2022-07-06T07:29:50;20.61;71.92
66594;DHT22;53450;42.584;23.366;2022-07-06T07:32:16;20.34;71.35
66594;DHT22;53450;42.584;23.366;2022-07-06T07:34:42;20.59;71.92
66594;DHT22;53450;42.584;23.366;2022-07-06T07:37:07;20.21;72.46
66594;DHT22;53450;42.584;23.366;2022-07-06T07:39:33;19.91;74.14
66594;DHT22;53450;42.584;23.366;2022-07-06T07:41:58;19.88;74.77
66594;DHT22;53450;42.584;23.366;2022-07-06T07:44:24;19.77;74.84
66594;DHT22;53450;42.584;23.366;2022-07-06T07:46:52;19.71;74.74
66594;DHT22;53450;42.584;23.366;2022-07-06T07:49:18;19.80;74.96
66594;DHT22;53450;42.584;23.366;2022-07-06T07:51:46;19.78;75.49
66594;DHT22;53450;42.584;23.366;2022-07-06T07:54:12;19.80;74.34
66594;DHT22;53450;42.584;23.366;2022-07-06T07:56:40;19.66;72.83
66594;DHT22;53450;42.584;23.366;2022-07-06T07:59:07;19.87;72.39
66594;DHT22;53450;42.584;23.366;2022-07-06T08:01:33;19.93;73.11
66594;DHT22;53450;42.584;23.366;2022-07-06T08:03:59;19.98;72.90
66594;DHT22;53450;42.584;23.366;2022-07-06T08:06:25;20.28;71.49
66594;DHT22;53450;42.584;23.366;2022-07-06T08:08:50;20.48;70.80
66594;DHT22;53450;42.584;23.366;2022-07-06T08:11:16;20.73;71.28
66594;DHT22;53450;42.584;23.366;2022-07-06T08:13:42;20.82;68.85
66594;DHT22;53450;42.584;23.366;2022-07-06T08:16:08;20.68;69.19
66594;DHT22;53450;42.584;23.366;2022-07-06T08:18:35;20.77;69.72
66594;DHT22;53450;42.584;23.366;2022-07-06T08:21:26;21.04;65.59
66594;DHT22;53450;42.584;23.366;2022-07-06T08:23:52;21.21;65.98
66594;DHT22;53450;42.584;23.366;2022-07-06T08:26:18;21.61;68.21
66594;DHT22;53450;42.584;23.366;2022-07-06T08:28:44;21.63;66.51
66594;DHT22;53450;42.584;23.366;2022-07-06T08:31:10;21.51;66.73
66594;DHT22;53450;42.584;23.366;2022-07-06T08:33:35;21.26;68.52
66594;DHT22;53450;42.584;23.366;2022-07-06T08:36:01;21.00;69.35
66594;DHT22;53450;42.584;23.366;2022-07-06T08:38:27;21.04;70.34
66594;DHT22;53450;42.584;23.366;2022-07-06T08:40:52;21.26;69.48
66594;DHT22;53450;42.584;23.366;2022-07-06T08:43:18;21.26;69.22
66594;DHT22;53450;42.584;23.366;2022-07-06T08:45:44;21.34;68.63
66594;DHT22;53450;42.584;23.366;2022-07-06T08:48:11;21.71;68.46
66594;DHT22;53450;42.584;23.366;2022-07-06T08:50:37;21.74;66.10
66594;DHT22;53450;42.584;23.366;2022-07-06T08:53:04;22.00;67.09
66594;DHT22;53450;42.584;23.366;2022-07-06T08:55:30;21.96;66.19
66594;DHT22;53450;42.584;23.366;2022-07-06T08:57:56;21.96;65.78
66594;DHT22;53450;42.584;23.366;2022-07-06T09:00:24;22.16;64.39
66594;DHT22;53450;42.584;23.366;2022-07-06T09:02:52;22.26;63.48
66594;DHT22;53450;42.584;23.366;2022-07-06T09:05:22;21.63;65.17
66594;DHT22;53450;42.584;23.366;2022-07-06T09:07:50;22.26;65.96
66594;DHT22;53450;42.584;23.366;2022-07-06T09:10:21;22.44;64.74
66594;DHT22;53450;42.584;23.366;2022-07-06T09:12:50;21.91;64.99
66594;DHT22;53450;42.584;23.366;2022-07-06T09:15:16;21.81;66.07
66594;DHT22;53450;42.584;23.366;2022-07-06T09:17:42;21.72;65.23
66594;DHT22;53450;42.584;23.366;2022-07-06T09:20:10;21.57;64.54
66594;DHT22;53450;42.584;23.366;2022-07-06T09:22:36;21.72;63.39
66594;DHT22;53450;42.584;23.366;2022-07-06T09:26:02;22.06;62.48
66594;DHT22;53450;42.584;23.366;2022-07-06T09:28:43;22.33;63.66
66594;DHT22;53450;42.584;23.366;2022-07-06T09:31:09;22.58;64.10
66594;DHT22;53450;42.584;23.366;2022-07-06T09:33:36;22.71;63.20
66594;DHT22;53450;42.584;23.366;2022-07-06T09:36:02;23.09;62.46
66594;DHT22;53450;42.584;23.366;2022-07-06T09:38:28;23.55;59.59
66594;DHT22;53450;42.584;23.366;2022-07-06T09:40:54;23.41;59.33
66594;DHT22;53450;42.584;23.366;2022-07-06T09:43:21;23.42;60.94
66594;DHT22;53450;42.584;23.366;2022-07-06T09:45:57;23.12;62.28
66594;DHT22;53450;42.584;23.366;2022-07-06T09:48:23;22.71;62.23
66594;DHT22;53450;42.584;23.366;2022-07-06T09:50:54;22.46;63.93
66594;DHT22;53450;42.584;23.366;2022-07-06T09:53:22;22.58;64.22
66594;DHT22;53450;42.584;23.366;2022-07-06T09:55:51;22.56;62.78
66594;DHT22;53450;42.584;23.366;2022-07-06T09:58:18;22.40;63.03
66594;DHT22;53450;42.584;23.366;2022-07-06T10:00:44;22.60;64.37
66594;DHT22;53450;42.584;23.366;2022-07-06T10:03:11;22.83;63.81
66594;DHT22;53450;42.584;23.366;2022-07-06T10:05:39;22.28;63.67
66594;DHT22;53450;42.584;23.366;2022-07-06T10:08:05;22.39;64.75
66594;DHT22;53450;42.584;23.366;2022-07-06T10:10:40;22.72;64.22
66594;DHT22;53450;42.584;23.366;2022-07-06T10:13:07;22.58;64.64
66594;DHT22;53450;42.584;23.366;2022-07-06T10:15:34;22.47;65.86
66594;DHT22;53450;42.584;23.366;2022-07-06T10:18:02;22.58;66.50
66594;DHT22;53450;42.584;23.366;2022-07-06T10:20:30;22.86;65.42
66594;DHT22;53450;42.584;23.366;2022-07-06T10:23:01;22.39;65.26
66594;DHT22;53450;42.584;23.366;2022-07-06T10:25:28;22.49;64.33
66594;DHT22;53450;42.584;23.366;2022-07-06T10:27:54;22.16;65.48
66594;DHT22;53450;42.584;23.366;2022-07-06T10:30:21;21.98;66.02
66594;DHT22;53450;42.584;23.366;2022-07-06T10:32:48;21.99;65.58
66594;DHT22;53450;42.584;23.366;2022-07-06T10:35:16;22.20;66.03
66594;DHT22;53450;42.584;23.366;2022-07-06T10:37:42;22.19;64.93
66594;DHT22;53450;42.584;23.366;2022-07-06T10:40:15;22.65;65.97
66594;DHT22;53450;42.584;23.366;2022-07-06T10:43:02;22.65;64.09
66594;DHT22;53450;42.584;23.366;2022-07-06T10:48:20;22.68;62.51
66594;DHT22;53450;42.584;23.366;2022-07-06T10:53:26;22.86;63.11
66594;DHT22;53450;42.584;23.366;2022-07-06T10:55:54;22.83;63.44
66594;DHT22;53450;42.584;23.366;2022-07-06T10:58:37;22.92;64.23
66594;DHT22;53450;42.584;23.366;2022-07-06T11:01:03;22.67;63.27
66594;DHT22;53450;42.584;23.366;2022-07-06T11:06:16;22.84;63.91
66594;DHT22;53450;42.584;23.366;2022-07-06T11:09:08;23.09;63.68
66594;DHT22;53450;42.584;23.366;2022-07-06T11:12:12;23.52;61.69
66594;DHT22;53450;42.584;23.366;2022-07-06T11:14:38;23.32;62.39
66594;DHT22;53450;42.584;23.366;2022-07-06T11:17:04;23.35;61.65
66594;DHT22;53450;42.584;23.366;2022-07-06T11:19:30;22.90;63.06
66594;DHT22;53450;42.584;23.366;2022-07-06T11:22:22;23.55;62.65
66594;DHT22;53450;42.584;23.366;2022-07-06T11:24:50;23.02;62.12
66594;DHT22;53450;42.584;23.366;2022-07-06T11:27:17;23.16;62.03
66594;DHT22;53450;42.584;23.366;2022-07-06T11:29:43;23.36;62.16
66594;DHT22;53450;42.584;23.366;2022-07-06T11:32:11;23.47;62.42
66594;DHT22;53450;42.584;23.366;2022-07-06T11:34:41;23.86;59.69
66594;DHT22;53450;42.584;23.366;2022-07-06T11:37:10;23.78;59.95
66594;DHT22;53450;42.584;23.366;2022-07-06T11:39:40;24.07;59.65
66594;DHT22;53450;42.584;23.366;2022-07-06T11:42:08;24.10;59.68
66594;DHT22;53450;42.584;23.366;2022-07-06T11:44:35;23.80;60.07
66594;DHT22;53450;42.584;23.366;2022-07-06T11:47:01;23.45;61.03
66594;DHT22;53450;42.584;23.366;2022-07-06T11:49:32;23.56;62.05
66594;DHT22;53450;42.584;23.366;2022-07-06T11:52:00;23.35;61.54
66594;DHT22;53450;42.584;23.366;2022-07-06T11:54:26;23.71;60.73
66594;DHT22;53450;42.584;23.366;2022-07-06T11:56:59;23.70;60.43
66594;DHT22;53450;42.584;23.366;2022-07-06T11:59:27;23.96;61.11
66594;DHT22;53450;42.584;23.366;2022-07-06T12:04:29;23.97;58.01
66594;DHT22;53450;42.584;23.366;2022-07-06T12:06:55;24.00;57.20
66594;DHT22;53450;42.584;23.366;2022-07-06T12:09:21;24.24;55.97
66594;DHT22;53450;42.584;23.366;2022-07-06T12:11:47;24.18;56.86
66594;DHT22;53450;42.584;23.366;2022-07-06T12:16:40;24.01;58.48
66594;DHT22;53450;42.584;23.366;2022-07-06T12:19:06;24.08;56.76
66594;DHT22;53450;42.584;23.366;2022-07-06T12:21:33;24.45;56.60
66594;DHT22;53450;42.584;23.366;2022-07-06T12:24:00;23.98;57.71
66594;DHT22;53450;42.584;23.366;2022-07-06T12:26:27;23.38;58.10
66594;DHT22;53450;42.584;23.366;2022-07-06T12:31:40;24.28;57.19
66594;DHT22;53450;42.584;23.366;2022-07-06T12:34:13;24.52;56.41
66594;DHT22;53450;42.584;23.366;2022-07-06T12:36:46;24.32;56.16
66594;DHT22;53450;42.584;23.366;2022-07-06T12:39:14;24.17;56.46
66594;DHT22;53450;42.584;23.366;2022-07-06T12:42:04;24.39;56.63
66594;DHT22;53450;42.584;23.366;2022-07-06T12:44:33;24.36;58.78
66594;DHT22;53450;42.584;23.366;2022-07-06T12:47:09;24.72;57.07
66594;DHT22;53450;42.584;23.366;2022-07-06T12:49:36;24.32;57.91
66594;DHT22;53450;42.584;23.366;2022-07-06T12:52:15;23.96;58.50
66594;DHT22;53450;42.584;23.366;2022-07-06T12:57:09;24.72;59.13
66594;DHT22;53450;42.584;23.366;2022-07-06T13:02:10;24.49;57.42
66594;DHT22;53450;42.584;23.366;2022-07-06T13:04:41;24.26;57.41
66594;DHT22;53450;42.584;23.366;2022-07-06T13:07:18;23.73;57.81
66594;DHT22;53450;42.584;23.366;2022-07-06T13:09:47;24.04;57.51
66594;DHT22;53450;42.584;23.366;2022-07-06T13:12:12;24.39;56.81
66594;DHT22;53450;42.584;23.366;2022-07-06T13:14:38;24.38;54.58
66594;DHT22;53450;42.584;23.366;2022-07-06T13:17:04;24.34;55.47
66594;DHT22;53450;42.584;23.366;2022-07-06T13:19:29;24.35;56.34
66594;DHT22;53450;42.584;23.366;2022-07-06T13:21:55;24.32;56.17
66594;DHT22;53450;42.584;23.366;2022-07-06T13:24:46;24.58;55.35
66594;DHT22;53450;42.584;23.366;2022-07-06T13:27:12;24.56;55.06
66594;DHT22;53450;42.584;23.366;2022-07-06T13:29:37;24.76;56.81
66594;DHT22;53450;42.584;23.366;2022-07-06T13:32:04;24.66;56.27
66594;DHT22;53450;42.584;23.366;2022-07-06T13:34:31;24.87;57.13
66594;DHT22;53450;42.584;23.366;2022-07-06T13:36:56;24.76;55.39
66594;DHT22;53450;42.584;23.366;2022-07-06T13:39:22;24.44;56.78
66594;DHT22;53450;42.584;23.366;2022-07-06T13:41:48;24.76;56.79
66594;DHT22;53450;42.584;23.366;2022-07-06T13:44:14;24.94;53.93
66594;DHT22;53450;42.584;23.366;2022-07-06T13:46:41;24.71;54.08
66594;DHT22;53450;42.584;23.366;2022-07-06T13:49:10;24.65;54.41
66594;DHT22;53450;42.584;23.366;2022-07-06T13:51:36;24.77;54.10
66594;DHT22;53450;42.584;23.366;2022-07-06T13:54:02;24.54;54.23
66594;DHT22;53450;42.584;23.366;2022-07-06T13:56:28;24.80;55.65
66594;DHT22;53450;42.584;23.366;2022-07-06T13:58:54;24.77;53.99
66594;DHT22;53450;42.584;23.366;2022-07-06T14:01:20;24.59;54.20
66594;DHT22;53450;42.584;23.366;2022-07-06T14:03:45;24.45;55.06
66594;DHT22;53450;42.584;23.366;2022-07-06T14:06:11;24.44;54.81
66594;DHT22;53450;42.584;23.366;2022-07-06T14:08:38;24.41;53.11
66594;DHT22;53450;42.584;23.366;2022-07-06T14:11:05;24.28;53.38
66594;DHT22;53450;42.584;23.366;2022-07-06T14:13:31;23.97;54.25
66594;DHT22;53450;42.584;23.366;2022-07-06T14:15:57;24.21;53.46
66594;DHT22;53450;42.584;23.366;2022-07-06T14:18:48;24.00;52.20
66594;DHT22;53450;42.584;23.366;2022-07-06T14:21:39;24.15;52.54
66594;DHT22;53450;42.584;23.366;2022-07-06T14:24:05;24.32;52.17
66594;DHT22;53450;42.584;23.366;2022-07-06T14:26:30;24.49;51.35
66594;DHT22;53450;42.584;23.366;2022-07-06T14:28:57;24.71;50.41
66594;DHT22;53450;42.584;23.366;2022-07-06T14:31:22;24.86;50.54
66594;DHT22;53450;42.584;23.366;2022-07-06T14:33:49;24.68;49.02
66594;DHT22;53450;42.584;23.366;2022-07-06T14:36:15;24.72;51.45
66594;DHT22;53450;42.584;23.366;2022-07-06T14:38:40;24.38;49.92
66594;DHT22;53450;42.584;23.366;2022-07-06T14:41:06;24.68;50.09
66594;DHT22;53450;42.584;23.366;2022-07-06T14:43:31;24.65;50.29
66594;DHT22;53450;42.584;23.366;2022-07-06T14:45:57;24.73;49.18
66594;DHT22;53450;42.584;23.366;2022-07-06T14:48:23;24.87;49.97
66594;DHT22;53450;42.584;23.366;2022-07-06T14:50:48;25.09;50.33
66594;DHT22;53450;42.584;23.366;2022-07-06T14:53:14;24.85;48.79
66594;DHT22;53450;42.584;23.366;2022-07-06T14:55:39;24.89;48.59
66594;DHT22;53450;42.584;23.366;2022-07-06T14:58:05;25.06;48.86
66594;DHT22;53450;42.584;23.366;2022-07-06T15:00:31;24.83;50.55
66594;DHT22;53450;42.584;23.366;2022-07-06T15:02:56;24.89;50.06
66594;DHT22;53450;42.584;23.366;2022-07-06T15:05:22;24.87;50.80
66594;DHT22;53450;42.584;23.366;2022-07-06T15:07:47;25.17;49.64
66594;DHT22;53450;42.584;23.366;2022-07-06T15:10:13;24.82;49.82
66594;DHT22;53450;42.584;23.366;2022-07-06T15:12:39;24.59;48.58
66594;DHT22;53450;42.584;23.366;2022-07-06T15:15:05;24.79;47.67
66594;DHT22;53450;42.584;23.366;2022-07-06T15:17:30;24.80;48.42
66594;DHT22;53450;42.584;23.366;2022-07-06T15:19:57;24.61;49.04
66594;DHT22;53450;42.584;23.366;2022-07-06T15:22:23;24.63;50.70
66594;DHT22;53450;42.584;23.366;2022-07-06T15:24:49;24.66;50.42
66594;DHT22;53450;42.584;23.366;2022-07-06T15:27:14;24.63;52.45
66594;DHT22;53450;42.584;23.366;2022-07-06T15:29:40;24.76;50.70
66594;DHT22;53450;42.584;23.366;2022-07-06T15:32:06;24.87;51.13
66594;DHT22;53450;42.584;23.366;2022-07-06T15:34:32;24.76;50.96
66594;DHT22;53450;42.584;23.366;2022-07-06T15:36:57;24.55;50.95
66594;DHT22;53450;42.584;23.366;2022-07-06T15:39:23;24.28;51.98
66594;DHT22;53450;42.584;23.366;2022-07-06T15:41:48;24.36;52.25
66594;DHT22;53450;42.584;23.366;2022-07-06T15:44:14;24.36;52.05